createdAt,value
2017-11-15T00:00:50.348Z,0
2017-11-15T00:01:50.353Z,0
2017-11-15T00:03:50.419Z,0
2017-11-15T00:04:49.889Z,0
2017-11-15T00:05:50.455Z,0
2017-11-15T00:07:05.126Z,0
2017-11-15T00:07:50.209Z,0
2017-11-15T00:08:50.476Z,0
2017-11-15T00:09:49.981Z,0
2017-11-15T00:11:05.185Z,0
2017-11-15T00:11:50.546Z,0
2017-11-15T00:12:50.553Z,0
2017-11-15T00:14:05.232Z,0
2017-11-15T00:14:50.574Z,0
2017-11-15T00:15:50.608Z,0
2017-11-15T00:17:05.318Z,0
2017-11-15T00:17:50.635Z,0
2017-11-15T00:18:50.668Z,0
2017-11-15T00:19:50.670Z,0
2017-11-15T00:20:50.733Z,0
2017-11-15T00:22:05.107Z,0
2017-11-15T00:22:50.738Z,0
2017-11-15T00:23:50.750Z,0
2017-11-15T00:24:50.784Z,0
2017-11-15T00:25:50.802Z,0
2017-11-15T00:26:50.796Z,0
2017-11-15T00:28:50.837Z,0
2017-11-15T00:30:05.279Z,0
2017-11-15T00:31:05.274Z,0
2017-11-15T00:31:50.617Z,0
2017-11-15T00:32:50.925Z,0
2017-11-15T00:33:50.938Z,0
2017-11-15T00:35:05.350Z,0
2017-11-15T00:35:50.977Z,0
2017-11-15T00:37:51.010Z,0
2017-11-15T00:39:05.685Z,0
2017-11-15T00:39:51.028Z,0
2017-11-15T00:41:05.723Z,0
2017-11-15T00:41:51.099Z,0
2017-11-15T00:42:51.092Z,0
2017-11-15T00:43:51.209Z,0
2017-11-15T00:46:05.551Z,0
2017-11-15T00:46:50.915Z,0
2017-11-15T00:47:51.179Z,0
2017-11-15T00:48:51.222Z,0
2017-11-15T00:49:51.212Z,0
2017-11-15T00:50:51.228Z,0
2017-11-15T00:51:51.244Z,0
2017-11-15T00:53:51.019Z,0
2017-11-15T00:55:51.164Z,0
2017-11-15T00:56:51.337Z,0
2017-11-15T00:58:06.116Z,0
2017-11-15T00:59:06.041Z,0
2017-11-15T00:59:51.406Z,0
2017-11-15T01:00:50.879Z,0
2017-11-15T01:01:51.429Z,0
2017-11-15T01:02:51.462Z,0
2017-11-15T01:03:51.501Z,0
2017-11-15T01:04:51.497Z,0
2017-11-15T01:05:51.504Z,0
2017-11-15T01:06:51.255Z,0
2017-11-15T01:07:51.521Z,0
2017-11-15T01:08:51.561Z,0
2017-11-15T01:09:51.328Z,0
2017-11-15T01:11:05.986Z,0
2017-11-15T01:11:51.590Z,0
2017-11-15T01:13:06.395Z,0
2017-11-15T01:14:06.309Z,0
2017-11-15T01:15:05.805Z,0
2017-11-15T01:15:51.693Z,0
2017-11-15T01:17:51.742Z,0
2017-11-15T01:18:51.837Z,0
2017-11-15T01:19:51.535Z,0
2017-11-15T01:20:51.523Z,0
2017-11-15T01:22:06.200Z,0
2017-11-15T01:22:51.794Z,0
2017-11-15T01:23:51.567Z,0
2017-11-15T01:24:51.585Z,0
2017-11-15T01:25:51.850Z,0
2017-11-15T01:26:51.879Z,0
2017-11-15T01:27:51.896Z,0
2017-11-15T01:29:06.564Z,0
2017-11-15T01:29:51.936Z,0
2017-11-15T01:30:51.978Z,0
2017-11-15T01:31:51.963Z,0
2017-11-15T01:33:06.670Z,0
2017-11-15T01:33:51.770Z,0
2017-11-15T01:34:51.998Z,0
2017-11-15T01:35:51.811Z,0
2017-11-15T01:36:52.056Z,0
2017-11-15T01:37:52.077Z,0
2017-11-15T01:38:52.090Z,0
2017-11-15T01:40:06.769Z,0
2017-11-15T01:40:52.124Z,0
2017-11-15T01:43:06.822Z,0
2017-11-15T01:44:06.839Z,0
2017-11-15T01:44:52.202Z,0
2017-11-15T01:46:52.261Z,0
2017-11-15T01:47:52.279Z,0
2017-11-15T01:49:06.938Z,0
2017-11-15T01:50:06.953Z,0
2017-11-15T01:50:52.302Z,0
2017-11-15T01:51:51.795Z,0
2017-11-15T01:52:52.327Z,0
2017-11-15T01:53:52.355Z,0
2017-11-15T01:54:52.100Z,0
2017-11-15T01:55:52.404Z,0
2017-11-15T01:57:07.087Z,0
2017-11-15T01:58:52.428Z,0
2017-11-15T01:59:52.466Z,0
2017-11-15T02:00:52.514Z,0
2017-11-15T02:01:52.504Z,0
2017-11-15T02:02:52.266Z,0
2017-11-15T02:03:52.274Z,0
2017-11-15T02:05:07.217Z,0
2017-11-15T02:05:52.316Z,0
2017-11-15T02:06:52.593Z,0
2017-11-15T02:08:07.002Z,0
2017-11-15T02:09:52.633Z,0
2017-11-15T02:10:52.660Z,0
2017-11-15T02:11:52.418Z,0
2017-11-15T02:12:52.439Z,0
2017-11-15T02:13:52.723Z,0
2017-11-15T02:14:52.504Z,0
2017-11-15T02:15:52.596Z,0
2017-11-15T02:16:52.773Z,0
2017-11-15T02:17:52.540Z,0
2017-11-15T02:19:07.226Z,0
2017-11-15T02:20:07.489Z,0
2017-11-15T02:20:52.859Z,0
2017-11-15T02:21:52.879Z,0
2017-11-15T02:23:07.544Z,0
2017-11-15T02:23:52.627Z,0
2017-11-15T02:24:52.904Z,0
2017-11-15T02:25:52.954Z,0
2017-11-15T02:26:52.981Z,0
2017-11-15T02:27:52.720Z,0
2017-11-15T02:28:52.727Z,0
2017-11-15T02:29:52.752Z,0
2017-11-15T02:30:53.030Z,0
2017-11-15T02:31:52.809Z,0
2017-11-15T02:32:53.074Z,0
2017-11-15T02:34:53.105Z,0
2017-11-15T02:35:53.135Z,0
2017-11-15T02:36:53.174Z,0
2017-11-15T02:37:53.173Z,0
2017-11-15T02:38:53.193Z,0
2017-11-15T02:39:53.272Z,0
2017-11-15T02:41:07.639Z,0
2017-11-15T02:42:07.887Z,0
2017-11-15T02:43:53.291Z,0
2017-11-15T02:44:52.771Z,0
2017-11-15T02:45:53.065Z,0
2017-11-15T02:46:53.316Z,0
2017-11-15T02:47:52.849Z,0
2017-11-15T02:48:53.336Z,0
2017-11-15T02:49:53.398Z,0
2017-11-15T02:51:07.779Z,0
2017-11-15T02:52:07.817Z,0
2017-11-15T02:52:53.437Z,0
2017-11-15T02:53:53.167Z,0
2017-11-15T02:55:08.136Z,0
2017-11-15T02:56:08.126Z,0
2017-11-15T02:56:52.965Z,0
2017-11-15T02:57:53.247Z,0
2017-11-15T02:59:53.522Z,0
2017-11-15T03:00:53.556Z,0
2017-11-15T03:02:22.658Z,0
2017-11-15T03:02:53.576Z,0
2017-11-15T03:03:53.612Z,0
2017-11-15T03:04:53.664Z,0
2017-11-15T03:05:53.680Z,0
2017-11-15T03:06:53.667Z,0
2017-11-15T03:08:08.349Z,0
2017-11-15T03:08:53.805Z,0
2017-11-15T03:09:53.452Z,0
2017-11-15T03:11:08.427Z,0
2017-11-15T03:11:53.788Z,0
2017-11-15T03:13:08.184Z,0
2017-11-15T03:13:53.792Z,0
2017-11-15T03:14:53.938Z,0
2017-11-15T03:16:08.496Z,0
2017-11-15T03:16:53.845Z,0
2017-11-15T03:17:53.864Z,0
2017-11-15T03:18:53.911Z,0
2017-11-15T03:19:53.979Z,0
2017-11-15T03:20:53.667Z,0
2017-11-15T03:21:53.940Z,0
2017-11-15T03:22:53.950Z,0
2017-11-15T03:24:08.635Z,0
2017-11-15T03:24:53.977Z,0
2017-11-15T03:25:54.029Z,0
2017-11-15T03:26:54.030Z,0
2017-11-15T03:27:54.046Z,0
2017-11-15T03:28:54.065Z,0
2017-11-15T03:29:54.186Z,0
2017-11-15T03:30:53.872Z,0
2017-11-15T03:32:08.523Z,0
2017-11-15T03:32:53.867Z,0
2017-11-15T03:35:08.847Z,0
2017-11-15T03:35:53.677Z,0
2017-11-15T03:36:54.224Z,0
2017-11-15T03:37:54.205Z,0
2017-11-15T03:38:54.007Z,0
2017-11-15T03:40:08.661Z,0
2017-11-15T03:40:54.277Z,0
2017-11-15T03:42:08.708Z,0
2017-11-15T03:43:08.729Z,0
2017-11-15T03:43:54.344Z,0
2017-11-15T03:44:54.393Z,0
2017-11-15T03:45:54.360Z,0
2017-11-15T03:46:54.387Z,0
2017-11-15T03:47:54.146Z,0
2017-11-15T03:48:54.466Z,0
2017-11-15T03:49:54.191Z,0
2017-11-15T03:50:54.496Z,0
2017-11-15T03:51:54.486Z,0
2017-11-15T03:52:54.496Z,0
2017-11-15T03:53:54.538Z,0
2017-11-15T03:55:08.957Z,0
2017-11-15T03:56:08.690Z,0
2017-11-15T03:56:54.565Z,0
2017-11-15T03:57:54.621Z,0
2017-11-15T03:59:09.368Z,0
2017-11-15T03:59:54.360Z,0
2017-11-15T04:00:54.641Z,0
2017-11-15T04:01:54.679Z,0
2017-11-15T04:02:54.419Z,0
2017-11-15T04:04:09.375Z,0
2017-11-15T04:05:09.143Z,0
2017-11-15T04:05:54.475Z,0
2017-11-15T04:07:09.421Z,0
2017-11-15T04:07:54.748Z,0
2017-11-15T04:08:54.790Z,0
2017-11-15T04:09:54.556Z,0
2017-11-15T04:10:54.939Z,0
2017-11-15T04:11:54.826Z,0
2017-11-15T04:12:54.848Z,0
2017-11-15T04:13:54.874Z,0
2017-11-15T04:14:54.628Z,0
2017-11-15T04:15:54.653Z,0
2017-11-15T04:16:54.940Z,0
2017-11-15T04:17:54.943Z,0
2017-11-15T04:18:54.963Z,0
2017-11-15T04:19:54.976Z,0
2017-11-15T04:20:54.972Z,0
2017-11-15T04:21:55.034Z,0
2017-11-15T04:22:55.041Z,0
2017-11-15T04:23:54.765Z,0
2017-11-15T04:24:55.069Z,0
2017-11-15T04:25:55.082Z,0
2017-11-15T04:27:09.521Z,0
2017-11-15T04:27:55.121Z,0
2017-11-15T04:29:09.806Z,0
2017-11-15T04:29:55.151Z,0
2017-11-15T04:30:55.182Z,0
2017-11-15T04:31:54.931Z,0
2017-11-15T04:32:55.003Z,0
2017-11-15T04:33:55.226Z,0
2017-11-15T04:34:55.245Z,0
2017-11-15T04:35:55.273Z,0
2017-11-15T04:36:55.287Z,0
2017-11-15T04:37:55.052Z,0
2017-11-15T04:38:55.319Z,0
2017-11-15T04:40:10.010Z,0
2017-11-15T04:40:55.364Z,0
2017-11-15T04:41:55.122Z,0
2017-11-15T04:43:10.054Z,0
2017-11-15T04:43:55.416Z,0
2017-11-15T04:44:55.438Z,0
2017-11-15T04:45:55.441Z,0
2017-11-15T04:46:55.451Z,0
2017-11-15T04:49:55.636Z,0
2017-11-15T04:50:55.281Z,0
2017-11-15T04:52:10.223Z,0
2017-11-15T04:53:55.325Z,0
2017-11-15T04:54:55.638Z,0
2017-11-15T04:55:55.378Z,0
2017-11-15T04:57:10.309Z,0
2017-11-15T04:57:55.670Z,0
2017-11-15T04:59:10.344Z,0
2017-11-15T04:59:55.698Z,0
2017-11-15T05:00:55.699Z,0
2017-11-15T05:01:55.756Z,0
2017-11-15T05:03:55.784Z,0
2017-11-15T05:04:55.532Z,0
2017-11-15T05:05:55.800Z,0
2017-11-15T05:06:55.814Z,0
2017-11-15T05:07:55.844Z,0
2017-11-15T05:08:55.866Z,0
2017-11-15T05:09:55.875Z,0
2017-11-15T05:11:10.613Z,0
2017-11-15T05:11:55.895Z,0
2017-11-15T05:12:55.922Z,0
2017-11-15T05:13:55.943Z,0
2017-11-15T05:15:10.376Z,0
2017-11-15T05:15:55.979Z,0
2017-11-15T05:16:55.757Z,0
2017-11-15T05:17:55.757Z,0
2017-11-15T05:18:56.050Z,0
2017-11-15T05:19:56.094Z,0
2017-11-15T05:21:10.717Z,0
2017-11-15T05:21:55.848Z,0
2017-11-15T05:22:56.108Z,0
2017-11-15T05:24:10.541Z,0
2017-11-15T05:24:56.137Z,0
2017-11-15T05:25:55.888Z,0
2017-11-15T05:26:55.929Z,0
2017-11-15T05:27:56.190Z,0
2017-11-15T05:28:56.211Z,0
2017-11-15T05:30:10.903Z,0
2017-11-15T05:30:56.269Z,0
2017-11-15T05:32:10.920Z,0
2017-11-15T05:32:56.307Z,0
2017-11-15T05:33:56.292Z,0
2017-11-15T05:34:56.329Z,0
2017-11-15T05:36:11.036Z,0
2017-11-15T05:36:56.372Z,0
2017-11-15T05:39:11.061Z,0
2017-11-15T05:39:56.389Z,0
2017-11-15T05:40:56.451Z,0
2017-11-15T05:41:56.585Z,0
2017-11-15T05:42:56.470Z,0
2017-11-15T05:43:56.473Z,0
2017-11-15T05:44:56.503Z,0
2017-11-15T05:46:10.952Z,0
2017-11-15T05:46:56.546Z,0
2017-11-15T05:47:56.546Z,0
2017-11-15T05:49:11.224Z,0
2017-11-15T05:49:56.590Z,0
2017-11-15T05:50:56.596Z,0
2017-11-15T05:51:56.617Z,0
2017-11-15T05:52:56.760Z,0
2017-11-15T05:53:56.409Z,0
2017-11-15T05:55:11.357Z,0
2017-11-15T05:55:56.683Z,0
2017-11-15T05:56:56.725Z,0
2017-11-15T05:57:56.736Z,0
2017-11-15T05:59:11.408Z,0
2017-11-15T05:59:56.781Z,0
2017-11-15T06:00:56.794Z,0
2017-11-15T06:02:11.207Z,0
2017-11-15T06:02:56.589Z,0
2017-11-15T06:04:11.267Z,0
2017-11-15T06:04:56.861Z,0
2017-11-15T06:05:56.888Z,0
2017-11-15T06:06:56.878Z,0
2017-11-15T06:07:56.935Z,0
2017-11-15T06:08:56.945Z,0
2017-11-15T06:09:56.936Z,0
2017-11-15T06:10:57.096Z,0
2017-11-15T06:12:56.985Z,0
2017-11-15T06:14:11.759Z,0
2017-11-15T06:14:57.619Z,0
2017-11-15T06:15:57.024Z,0
2017-11-15T06:16:57.329Z,0
2017-11-15T06:18:12.099Z,0
2017-11-15T06:19:12.370Z,0
2017-11-15T06:19:57.636Z,0
2017-11-15T06:20:56.950Z,0
2017-11-15T06:22:57.265Z,0
2017-11-15T06:23:57.318Z,0
2017-11-15T06:24:57.695Z,0
2017-11-15T06:26:11.805Z,0
2017-11-15T06:26:57.506Z,0
2017-11-15T06:28:57.722Z,0
2017-11-15T06:29:57.180Z,0
2017-11-15T06:30:57.515Z,0
2017-11-15T06:31:57.544Z,0
2017-11-15T06:33:12.298Z,0
2017-11-15T06:34:57.602Z,0
2017-11-15T06:35:57.293Z,0
2017-11-15T06:36:57.944Z,0
2017-11-15T06:37:57.455Z,0
2017-11-15T06:38:57.486Z,0
2017-11-15T06:39:57.207Z,0
2017-11-15T06:40:57.254Z,0
2017-11-15T06:41:57.517Z,0
2017-11-15T06:42:57.536Z,0
2017-11-15T06:43:57.579Z,0
2017-11-15T06:44:57.323Z,0
2017-11-15T06:45:57.587Z,0
2017-11-15T06:46:57.619Z,0
2017-11-15T06:47:57.641Z,0
2017-11-15T06:48:57.635Z,0
2017-11-15T06:50:12.333Z,0
2017-11-15T06:50:57.685Z,0
2017-11-15T06:52:12.389Z,0
2017-11-15T06:52:56.940Z,0
2017-11-15T06:53:57.713Z,0
2017-11-15T06:55:12.422Z,0
2017-11-15T06:55:57.788Z,0
2017-11-15T06:56:57.793Z,0
2017-11-15T06:57:57.825Z,0
2017-11-15T06:58:57.811Z,0
2017-11-15T06:59:57.853Z,0
2017-11-15T07:00:57.861Z,0
2017-11-15T07:01:57.887Z,5
2017-11-15T07:02:57.940Z,5
2017-11-15T07:04:12.585Z,5
2017-11-15T07:05:12.613Z,5
2017-11-15T07:05:57.698Z,5
2017-11-15T07:06:57.998Z,5
2017-11-15T07:08:12.644Z,5
2017-11-15T07:09:12.691Z,5
2017-11-15T07:10:12.693Z,5
2017-11-15T07:11:12.720Z,5
2017-11-15T07:11:58.059Z,5
2017-11-15T07:13:58.110Z,5
2017-11-15T07:14:58.117Z,5
2017-11-15T07:15:58.132Z,5
2017-11-15T07:16:58.267Z,5
2017-11-15T07:17:58.176Z,5
2017-11-15T07:18:58.204Z,5
2017-11-15T07:19:57.692Z,5
2017-11-15T07:20:57.973Z,5
2017-11-15T07:21:58.242Z,5
2017-11-15T07:22:58.322Z,5
2017-11-15T07:23:58.280Z,5
2017-11-15T07:24:58.297Z,5
2017-11-15T07:26:12.964Z,5
2017-11-15T07:26:58.355Z,5
2017-11-15T07:27:58.348Z,5
2017-11-15T07:29:13.073Z,5
2017-11-15T07:30:13.719Z,5
2017-11-15T07:30:58.161Z,5
2017-11-15T07:31:58.176Z,5
2017-11-15T07:32:58.461Z,5
2017-11-15T07:34:13.134Z,5
2017-11-15T07:34:58.222Z,5
2017-11-15T07:35:58.499Z,5
2017-11-15T07:37:13.186Z,5
2017-11-15T07:37:58.291Z,5
2017-11-15T07:39:13.021Z,5
2017-11-15T07:40:13.257Z,5
2017-11-15T07:40:58.342Z,5
2017-11-15T07:41:58.707Z,5
2017-11-15T07:42:58.612Z,10
2017-11-15T07:43:58.404Z,10
2017-11-15T07:44:58.675Z,10
2017-11-15T07:46:13.355Z,10
2017-11-15T07:46:58.707Z,10
2017-11-15T07:47:58.742Z,10
2017-11-15T07:48:58.500Z,15
2017-11-15T07:49:58.741Z,15
2017-11-15T07:50:58.781Z,10
2017-11-15T07:51:58.551Z,10
2017-11-15T07:53:13.477Z,10
2017-11-15T07:53:58.810Z,10
2017-11-15T07:54:58.840Z,10
2017-11-15T07:55:58.868Z,10
2017-11-15T07:56:58.617Z,10
2017-11-15T07:57:58.646Z,10
2017-11-15T07:59:13.588Z,15
2017-11-15T07:59:58.664Z,15
2017-11-15T08:00:58.687Z,15
2017-11-15T08:01:58.737Z,15
2017-11-15T08:02:59.018Z,15
2017-11-15T08:04:13.675Z,15
2017-11-15T08:04:59.041Z,15
2017-11-15T08:05:58.791Z,15
2017-11-15T08:06:58.860Z,20
2017-11-15T08:07:59.082Z,25
2017-11-15T08:09:13.755Z,35
2017-11-15T08:09:59.135Z,35
2017-11-15T08:11:13.808Z,30
2017-11-15T08:11:59.193Z,25
2017-11-15T08:12:59.151Z,25
2017-11-15T08:13:58.679Z,25
2017-11-15T08:14:58.947Z,30
2017-11-15T08:15:59.240Z,30
2017-11-15T08:16:58.989Z,20
2017-11-15T08:18:13.920Z,20
2017-11-15T08:19:13.952Z,15
2017-11-15T08:19:59.303Z,15
2017-11-15T08:20:59.294Z,15
2017-11-15T08:21:59.072Z,20
2017-11-15T08:22:59.362Z,20
2017-11-15T08:23:59.391Z,15
2017-11-15T08:25:14.128Z,15
2017-11-15T08:26:14.070Z,15
2017-11-15T08:27:14.095Z,20
2017-11-15T08:28:59.482Z,20
2017-11-15T08:29:59.487Z,15
2017-11-15T08:31:13.910Z,15
2017-11-15T08:31:59.603Z,20
2017-11-15T08:32:59.548Z,20
2017-11-15T08:33:59.578Z,15
2017-11-15T08:35:59.617Z,15
2017-11-15T08:37:14.298Z,15
2017-11-15T08:37:59.671Z,15
2017-11-15T08:40:14.351Z,15
2017-11-15T08:40:59.676Z,15
2017-11-15T08:41:59.716Z,15
2017-11-15T08:43:14.119Z,15
2017-11-15T08:43:59.754Z,15
2017-11-15T08:44:59.260Z,15
2017-11-15T08:45:59.779Z,15
2017-11-15T08:47:59.816Z,20
2017-11-15T08:48:59.820Z,20
2017-11-15T08:49:59.583Z,20
2017-11-15T08:51:59.902Z,15
2017-11-15T08:52:59.649Z,15
2017-11-15T08:54:14.599Z,20
2017-11-15T08:54:59.942Z,20
2017-11-15T08:55:59.977Z,20
2017-11-15T08:57:00.010Z,20
2017-11-15T08:58:00.020Z,20
2017-11-15T08:59:00.010Z,20
2017-11-15T08:59:59.547Z,20
2017-11-15T09:00:59.786Z,20
2017-11-15T09:02:00.081Z,20
2017-11-15T09:03:59.861Z,20
2017-11-15T09:05:00.144Z,20
2017-11-15T09:06:00.155Z,20
2017-11-15T09:06:59.910Z,25
2017-11-15T09:07:59.935Z,30
2017-11-15T09:09:00.249Z,30
2017-11-15T09:10:00.005Z,30
2017-11-15T09:11:00.258Z,30
2017-11-15T09:12:14.681Z,30
2017-11-15T09:13:00.011Z,30
2017-11-15T09:14:14.967Z,25
2017-11-15T09:15:00.314Z,25
2017-11-15T09:16:00.345Z,25
2017-11-15T09:17:00.368Z,30
2017-11-15T09:18:00.390Z,30
2017-11-15T09:19:00.399Z,30
2017-11-15T09:20:14.817Z,25
2017-11-15T09:22:00.444Z,30
2017-11-15T09:23:00.221Z,35
2017-11-15T09:24:00.466Z,35
2017-11-15T09:25:00.343Z,35
2017-11-15T09:27:00.125Z,35
2017-11-15T09:28:14.971Z,35
2017-11-15T09:29:00.585Z,40
2017-11-15T09:30:15.261Z,40
2017-11-15T09:31:15.309Z,40
2017-11-15T09:32:00.383Z,40
2017-11-15T09:33:00.693Z,40
2017-11-15T09:34:00.404Z,40
2017-11-15T09:35:00.442Z,45
2017-11-15T09:36:15.381Z,40
2017-11-15T09:37:00.753Z,35
2017-11-15T09:38:00.751Z,35
2017-11-15T09:39:00.751Z,35
2017-11-15T09:40:00.812Z,40
2017-11-15T09:41:00.806Z,35
2017-11-15T09:42:00.821Z,35
2017-11-15T09:43:00.583Z,30
2017-11-15T09:44:15.566Z,35
2017-11-15T09:45:00.632Z,40
2017-11-15T09:46:00.887Z,45
2017-11-15T09:47:00.944Z,45
2017-11-15T09:48:00.689Z,45
2017-11-15T09:50:00.963Z,40
2017-11-15T09:51:15.665Z,35
2017-11-15T09:52:00.753Z,35
2017-11-15T09:53:01.029Z,35
2017-11-15T09:54:15.720Z,35
2017-11-15T09:55:00.553Z,35
2017-11-15T09:56:15.751Z,40
2017-11-15T09:57:00.955Z,45
2017-11-15T09:58:00.843Z,45
2017-11-15T09:59:01.160Z,45
2017-11-15T10:00:15.831Z,50
2017-11-15T10:01:00.906Z,50
2017-11-15T10:02:01.176Z,50
2017-11-15T10:03:00.983Z,55
2017-11-15T10:04:01.242Z,55
2017-11-15T10:05:01.261Z,50
2017-11-15T10:06:01.285Z,45
2017-11-15T10:07:01.291Z,45
2017-11-15T10:08:01.336Z,45
2017-11-15T10:09:15.995Z,45
2017-11-15T10:10:01.337Z,45
2017-11-15T10:11:01.404Z,45
2017-11-15T10:12:01.126Z,45
2017-11-15T10:13:01.164Z,40
2017-11-15T10:14:01.186Z,40
2017-11-15T10:15:16.107Z,40
2017-11-15T10:16:01.202Z,35
2017-11-15T10:17:01.307Z,35
2017-11-15T10:18:01.529Z,35
2017-11-15T10:19:01.507Z,40
2017-11-15T10:20:01.305Z,45
2017-11-15T10:21:01.318Z,50
2017-11-15T10:22:01.592Z,55
2017-11-15T10:23:01.620Z,55
2017-11-15T10:24:01.610Z,45
2017-11-15T10:25:01.663Z,45
2017-11-15T10:26:01.662Z,45
2017-11-15T10:28:01.802Z,45
2017-11-15T10:29:01.715Z,40
2017-11-15T10:30:01.735Z,35
2017-11-15T10:31:01.777Z,30
2017-11-15T10:32:01.772Z,30
2017-11-15T10:33:01.807Z,30
2017-11-15T10:34:01.832Z,30
2017-11-15T10:36:16.536Z,30
2017-11-15T10:37:16.279Z,30
2017-11-15T10:38:01.908Z,30
2017-11-15T10:39:01.919Z,30
2017-11-15T10:40:01.947Z,25
2017-11-15T10:41:16.671Z,20
2017-11-15T10:42:01.988Z,20
2017-11-15T10:43:01.744Z,20
2017-11-15T10:45:02.036Z,20
2017-11-15T10:46:01.823Z,20
2017-11-15T10:47:16.713Z,15
2017-11-15T10:48:02.096Z,15
2017-11-15T10:49:01.588Z,15
2017-11-15T10:50:02.110Z,15
2017-11-15T10:51:01.915Z,15
2017-11-15T10:52:16.554Z,15
2017-11-15T10:53:01.939Z,15
2017-11-15T10:54:02.219Z,15
2017-11-15T10:55:02.238Z,15
2017-11-15T10:56:02.273Z,15
2017-11-15T10:57:02.269Z,20
2017-11-15T10:58:02.025Z,20
2017-11-15T10:59:02.301Z,20
2017-11-15T11:00:02.321Z,20
2017-11-15T11:01:02.332Z,20
2017-11-15T11:02:02.102Z,20
2017-11-15T11:03:17.025Z,20
2017-11-15T11:04:02.408Z,20
2017-11-15T11:05:02.162Z,25
2017-11-15T11:06:02.420Z,30
2017-11-15T11:07:02.472Z,35
2017-11-15T11:08:17.129Z,40
2017-11-15T11:09:02.505Z,40
2017-11-15T11:10:02.248Z,35
2017-11-15T11:11:02.264Z,30
2017-11-15T11:12:02.024Z,25
2017-11-15T11:13:02.555Z,25
2017-11-15T11:14:02.599Z,25
2017-11-15T11:16:02.502Z,25
2017-11-15T11:17:02.631Z,25
2017-11-15T11:18:02.692Z,25
2017-11-15T11:19:17.381Z,30
2017-11-15T11:20:02.704Z,35
2017-11-15T11:21:02.441Z,35
2017-11-15T11:22:02.476Z,35
2017-11-15T11:23:17.466Z,30
2017-11-15T11:24:02.784Z,30
2017-11-15T11:25:02.311Z,30
2017-11-15T11:26:02.837Z,35
2017-11-15T11:27:02.579Z,35
2017-11-15T11:28:17.253Z,30
2017-11-15T11:29:17.554Z,30
2017-11-15T11:30:02.928Z,30
2017-11-15T11:31:02.918Z,30
2017-11-15T11:32:02.657Z,35
2017-11-15T11:33:02.709Z,40
2017-11-15T11:34:02.477Z,45
2017-11-15T11:35:17.396Z,40
2017-11-15T11:36:02.749Z,40
2017-11-15T11:37:02.782Z,35
2017-11-15T11:38:02.534Z,40
2017-11-15T11:39:03.060Z,35
2017-11-15T11:40:03.111Z,35
2017-11-15T11:41:03.105Z,35
2017-11-15T11:42:02.856Z,40
2017-11-15T11:43:02.902Z,35
2017-11-15T11:44:03.166Z,35
2017-11-15T11:45:03.192Z,30
2017-11-15T11:46:02.934Z,30
2017-11-15T11:47:02.965Z,35
2017-11-15T11:48:03.240Z,40
2017-11-15T11:49:03.286Z,45
2017-11-15T11:50:17.696Z,40
2017-11-15T11:52:03.327Z,35
2017-11-15T11:53:03.344Z,30
2017-11-15T11:54:03.356Z,30
2017-11-15T11:56:03.402Z,25
2017-11-15T11:57:03.418Z,25
2017-11-15T11:58:03.488Z,20
2017-11-15T11:59:03.220Z,20
2017-11-15T12:00:18.158Z,15
2017-11-15T12:01:03.497Z,15
2017-11-15T12:02:03.493Z,20
2017-11-15T12:03:03.580Z,25
2017-11-15T12:04:03.296Z,25
2017-11-15T12:05:03.572Z,30
2017-11-15T12:06:03.585Z,30
2017-11-15T12:07:03.608Z,25
2017-11-15T12:09:03.398Z,30
2017-11-15T12:10:18.312Z,30
2017-11-15T12:11:03.676Z,30
2017-11-15T12:12:18.365Z,30
2017-11-15T12:13:03.733Z,30
2017-11-15T12:14:03.770Z,30
2017-11-15T12:15:03.752Z,35
2017-11-15T12:16:03.787Z,35
2017-11-15T12:17:03.803Z,35
2017-11-15T12:18:18.216Z,35
2017-11-15T12:19:03.845Z,35
2017-11-15T12:20:03.858Z,35
2017-11-15T12:21:03.874Z,35
2017-11-15T12:22:18.295Z,35
2017-11-15T12:24:03.961Z,35
2017-11-15T12:25:18.623Z,30
2017-11-15T12:26:03.988Z,35
2017-11-15T12:27:03.987Z,35
2017-11-15T12:28:03.522Z,35
2017-11-15T12:29:04.021Z,35
2017-11-15T12:30:03.796Z,35
2017-11-15T12:31:18.217Z,40
2017-11-15T12:32:04.102Z,40
2017-11-15T12:33:18.778Z,40
2017-11-15T12:34:03.881Z,40
2017-11-15T12:35:18.559Z,40
2017-11-15T12:37:04.207Z,40
2017-11-15T12:38:18.885Z,40
2017-11-15T12:40:04.229Z,35
2017-11-15T12:41:18.665Z,35
2017-11-15T12:43:04.310Z,35
2017-11-15T12:44:18.726Z,35
2017-11-15T12:45:04.353Z,30
2017-11-15T12:46:19.022Z,30
2017-11-15T12:47:04.126Z,30
2017-11-15T12:49:04.429Z,30
2017-11-15T12:50:04.181Z,30
2017-11-15T12:51:04.478Z,30
2017-11-15T12:52:04.466Z,30
2017-11-15T12:53:04.221Z,30
2017-11-15T12:54:19.183Z,25
2017-11-15T12:56:19.242Z,25
2017-11-15T12:57:04.589Z,25
2017-11-15T12:58:04.593Z,25
2017-11-15T12:59:04.628Z,25
2017-11-15T13:00:04.656Z,25
2017-11-15T13:01:19.106Z,25
2017-11-15T13:02:19.344Z,20
2017-11-15T13:03:04.708Z,20
2017-11-15T13:04:04.450Z,20
2017-11-15T13:05:04.747Z,20
2017-11-15T13:06:04.489Z,20
2017-11-15T13:07:04.791Z,20
2017-11-15T13:09:04.937Z,20
2017-11-15T13:10:34.156Z,20
2017-11-15T13:11:04.862Z,20
2017-11-15T13:12:04.896Z,20
2017-11-15T13:13:04.927Z,15
2017-11-15T13:14:19.577Z,15
2017-11-15T13:15:04.977Z,15
2017-11-15T13:16:04.684Z,15
2017-11-15T13:17:04.976Z,15
2017-11-15T13:18:19.646Z,15
2017-11-15T13:20:05.000Z,10
2017-11-15T13:21:05.069Z,10
2017-11-15T13:22:05.062Z,10
2017-11-15T13:23:19.754Z,15
2017-11-15T13:24:19.515Z,15
2017-11-15T13:25:19.791Z,15
2017-11-15T13:26:05.178Z,15
2017-11-15T13:27:19.303Z,15
2017-11-15T13:28:05.219Z,15
2017-11-15T13:29:05.219Z,15
2017-11-15T13:31:05.263Z,10
2017-11-15T13:32:19.923Z,10
2017-11-15T13:33:05.262Z,10
2017-11-15T13:34:05.287Z,10
2017-11-15T13:35:05.331Z,5
2017-11-15T13:36:05.359Z,5
2017-11-15T13:37:04.956Z,5
2017-11-15T13:38:05.397Z,5
2017-11-15T13:39:05.429Z,5
2017-11-15T13:40:05.154Z,5
2017-11-15T13:41:20.103Z,5
2017-11-15T13:42:05.451Z,5
2017-11-15T13:43:05.481Z,10
2017-11-15T13:44:05.493Z,10
2017-11-15T13:45:20.176Z,10
2017-11-15T13:46:05.529Z,10
2017-11-15T13:47:05.319Z,10
2017-11-15T13:48:05.328Z,10
2017-11-15T13:49:05.571Z,10
2017-11-15T13:50:20.269Z,10
2017-11-15T13:51:05.120Z,10
2017-11-15T13:52:05.381Z,10
2017-11-15T13:53:20.354Z,10
2017-11-15T13:54:05.724Z,10
2017-11-15T13:55:05.712Z,10
2017-11-15T13:56:05.221Z,15
2017-11-15T13:57:20.434Z,15
2017-11-15T13:58:20.437Z,10
2017-11-15T13:59:05.782Z,10
2017-11-15T14:00:05.551Z,10
2017-11-15T14:01:05.303Z,10
2017-11-15T14:02:05.854Z,10
2017-11-15T14:03:05.593Z,10
2017-11-15T14:04:05.895Z,10
2017-11-15T14:05:20.563Z,10
2017-11-15T14:06:20.597Z,10
2017-11-15T14:08:05.709Z,10
2017-11-15T14:09:05.989Z,10
2017-11-15T14:10:05.488Z,5
2017-11-15T14:11:06.025Z,5
2017-11-15T14:12:06.048Z,5
2017-11-15T14:13:20.708Z,5
2017-11-15T14:14:05.816Z,5
2017-11-15T14:15:20.747Z,5
2017-11-15T14:16:20.551Z,5
2017-11-15T14:17:06.194Z,5
2017-11-15T14:18:20.859Z,5
2017-11-15T14:19:20.837Z,5
2017-11-15T14:20:05.421Z,5
2017-11-15T14:21:20.605Z,5
2017-11-15T14:22:20.913Z,5
2017-11-15T14:23:06.004Z,0
2017-11-15T14:24:06.326Z,0
2017-11-15T14:25:06.073Z,0
2017-11-15T14:26:06.369Z,5
2017-11-15T14:27:06.328Z,0
2017-11-15T14:28:06.357Z,0
2017-11-15T14:29:20.521Z,0
2017-11-15T14:30:06.390Z,0
2017-11-15T14:31:06.412Z,0
2017-11-15T14:32:06.293Z,0
2017-11-15T14:33:06.446Z,0
2017-11-15T14:34:06.239Z,0
2017-11-15T14:35:06.227Z,0
2017-11-15T14:36:05.999Z,0
2017-11-15T14:37:06.532Z,0
2017-11-15T14:38:06.302Z,0
2017-11-15T14:39:06.597Z,0
2017-11-15T14:40:06.626Z,0
2017-11-15T14:41:06.597Z,0
2017-11-15T14:42:21.296Z,0
2017-11-15T14:43:06.381Z,0
2017-11-15T14:44:06.408Z,0
2017-11-15T14:45:21.341Z,0
2017-11-15T14:46:06.697Z,0
2017-11-15T14:47:06.204Z,0
2017-11-15T14:48:21.412Z,0
2017-11-15T14:49:21.440Z,0
2017-11-15T14:50:06.790Z,0
2017-11-15T14:51:06.800Z,0
2017-11-15T14:52:06.316Z,0
2017-11-15T14:53:21.530Z,0
2017-11-15T14:54:21.515Z,0
2017-11-15T14:55:06.971Z,0
2017-11-15T14:56:06.904Z,0
2017-11-15T14:57:06.921Z,0
2017-11-15T14:58:06.684Z,0
2017-11-15T14:59:06.691Z,0
2017-11-15T15:00:21.631Z,0
2017-11-15T15:01:06.741Z,0
2017-11-15T15:02:07.022Z,0
2017-11-15T15:03:07.057Z,0
2017-11-15T15:04:07.059Z,0
2017-11-15T15:05:06.827Z,0
2017-11-15T15:06:07.098Z,0
2017-11-15T15:07:06.854Z,0
2017-11-15T15:08:07.121Z,0
2017-11-15T15:09:21.811Z,0
2017-11-15T15:10:06.903Z,0
2017-11-15T15:11:07.220Z,0
2017-11-15T15:12:07.221Z,0
2017-11-15T15:13:07.279Z,0
2017-11-15T15:14:06.732Z,0
2017-11-15T15:15:07.021Z,0
2017-11-15T15:16:07.288Z,0
2017-11-15T15:17:07.074Z,0
2017-11-15T15:18:21.724Z,0
2017-11-15T15:19:07.329Z,0
2017-11-15T15:20:07.098Z,0
2017-11-15T15:21:07.382Z,0
2017-11-15T15:22:07.433Z,0
2017-11-15T15:23:22.067Z,0
2017-11-15T15:24:07.443Z,0
2017-11-15T15:25:07.474Z,0
2017-11-15T15:26:07.220Z,0